Time;durP1;ratioP1;P1;durP2;ratioP2;P2;SDS_P1;SDS_P2;PMS_P1;PMS_P2;Temp;Humidity;BMP_temperature;BMP_pressure;BME280_temperature;BME280_humidity;BME280_pressure;Samples;Min_cycle;Max_cycle;Signal;HPM_P1;HPM_P2
2023/01/20 00:25:45;;;;;;;9.23;6.10;;;0.30;74.60;;;;;;5311418;22;20219;-90
2023/01/20 00:30:43;;;;;;;9.73;5.93;;;0.30;75.70;;;;;;5042036;28;20206;-88
2023/01/20 00:33:09;;;;;;;9.60;5.77;;;0.40;75.60;;;;;;5131712;22;20237;-90
2023/01/20 00:43:17;;;;;;;13.00;6.27;;;0.40;77.60;;;;;;5050416;28;20199;-89
2023/01/20 00:45:44;;;;;;;8.43;5.60;;;0.30;76.50;;;;;;5049238;28;20191;-88
2023/01/20 00:48:11;;;;;;;11.20;5.60;;;0.30;76.90;;;;;;5053604;28;20565;-87
2023/01/20 00:55:44;;;;;;;11.13;5.80;;;0.30;77.00;;;;;;5146658;22;20224;-88
2023/01/20 01:08:29;;;;;;;9.57;5.70;;;0.30;73.30;;;;;;5914966;22;20207;-90
2023/01/20 01:51:15;;;;;;;8.13;4.43;;;0.10;76.80;;;;;;4993047;28;20196;-91
2023/01/20 01:53:45;;;;;;;5.83;4.70;;;0.10;77.40;;;;;;4993507;28;20207;-91
2023/01/20 01:56:14;;;;;;;6.77;5.20;;;0.00;77.80;;;;;;5041979;22;20241;-90
2023/01/20 01:58:45;;;;;;;7.17;4.77;;;-0.10;78.70;;;;;;5051219;28;20203;-89
2023/01/20 02:11:30;;;;;;;6.13;4.67;;;-0.50;82.70;;;;;;5313153;22;20222;-88
2023/01/20 02:13:57;;;;;;;6.00;4.80;;;-0.50;83.30;;;;;;5465390;22;20232;-90
2023/01/20 02:40:00;;;;;;;8.17;4.83;;;-0.60;86.60;;;;;;5064293;22;20309;-90
2023/01/20 02:42:36;;;;;;;7.97;5.07;;;-0.50;85.50;;;;;;5048891;28;20210;-88
2023/01/20 02:45:11;;;;;;;6.53;4.77;;;-0.40;85.50;;;;;;5044766;28;20187;-90
2023/01/20 02:47:44;;;;;;;8.33;5.20;;;-0.30;85.60;;;;;;5045943;28;20216;-90
2023/01/20 02:50:16;;;;;;;6.97;4.60;;;-0.20;85.70;;;;;;5045556;28;20205;-89
2023/01/20 02:52:46;;;;;;;7.67;5.10;;;-0.20;85.70;;;;;;5362342;22;20216;-88
2023/01/20 02:55:19;;;;;;;6.03;4.80;;;-0.20;85.70;;;;;;5141004;22;20218;-88
2023/01/20 02:57:52;;;;;;;7.50;5.17;;;-0.20;85.70;;;;;;5040840;28;20204;-90
2023/01/20 03:00:23;;;;;;;6.67;4.80;;;-0.10;85.80;;;;;;5047424;28;20194;-90
2023/01/20 03:02:53;;;;;;;10.00;4.87;;;-0.10;85.80;;;;;;5041489;28;20201;-89
2023/01/20 03:05:26;;;;;;;8.17;4.80;;;0.00;85.00;;;;;;5036380;28;20191;-90
2023/01/20 03:07:55;;;;;;;8.60;5.27;;;0.00;85.80;;;;;;5044258;28;20254;-90
2023/01/20 03:10:25;;;;;;;7.67;4.87;;;0.00;85.80;;;;;;5040720;28;20198;-93
2023/01/20 03:12:55;;;;;;;7.47;5.27;;;-0.10;85.80;;;;;;5047930;28;20210;-91
2023/01/20 03:15:27;;;;;;;7.70;4.93;;;-0.10;85.80;;;;;;5041504;28;20214;-90
2023/01/20 03:17:54;;;;;;;10.20;5.30;;;-0.20;85.70;;;;;;5029561;28;20217;-93
2023/01/20 03:20:22;;;;;;;9.07;5.13;;;-0.20;85.70;;;;;;5046544;28;20209;-90
2023/01/20 03:22:49;;;;;;;7.47;5.00;;;-0.10;85.80;;;;;;5051080;28;20226;-89
2023/01/20 03:25:17;;;;;;;8.27;5.00;;;0.00;85.80;;;;;;5042762;28;20211;-92
2023/01/20 03:27:44;;;;;;;7.83;5.27;;;0.20;84.50;;;;;;5039724;28;20596;-89
2023/01/20 03:30:13;;;;;;;10.30;4.90;;;0.30;83.10;;;;;;5048335;28;20212;-89
2023/01/20 03:32:42;;;;;;;6.27;4.87;;;0.20;85.90;;;;;;5046662;28;20208;-89
2023/01/20 03:35:10;;;;;;;8.87;5.30;;;0.10;85.90;;;;;;5047647;28;20228;-91
2023/01/20 03:37:38;;;;;;;7.03;4.87;;;0.00;86.60;;;;;;5047199;28;20209;-90
2023/01/20 03:40:06;;;;;;;7.40;4.73;;;0.00;85.80;;;;;;5053366;28;20190;-89
2023/01/20 03:42:38;;;;;;;8.07;5.33;;;0.10;85.90;;;;;;5042229;28;20271;-92
2023/01/20 03:45:09;;;;;;;7.97;5.70;;;0.00;85.80;;;;;;5049583;28;20203;-90
2023/01/20 03:47:53;;;;;;;9.30;5.47;;;0.10;85.90;;;;;;5055535;28;20183;-88
2023/01/20 03:53:00;;;;;;;7.33;5.03;;;0.10;85.90;;;;;;5031141;28;20208;-92
2023/01/20 03:55:31;;;;;;;7.37;5.33;;;0.10;85.90;;;;;;5035050;28;20282;-90
2023/01/20 03:58:05;;;;;;;8.47;5.63;;;0.20;85.90;;;;;;5420994;22;20231;-89
2023/01/20 04:03:14;;;;;;;5.73;5.00;;;0.40;78.90;;;;;;5350771;22;20994;-91
2023/01/20 04:05:42;;;;;;;8.80;4.80;;;0.50;77.60;;;;;;5055011;28;20274;-88
2023/01/20 04:08:12;;;;;;;7.20;4.80;;;0.40;76.60;;;;;;5673954;22;20224;-90
2023/01/20 04:10:41;;;;;;;6.70;4.60;;;0.40;77.40;;;;;;5052415;28;20201;-91
2023/01/20 04:13:09;;;;;;;7.87;4.80;;;0.40;77.50;;;;;;5053246;28;20216;-89
2023/01/20 04:15:39;;;;;;;7.20;4.77;;;0.40;78.60;;;;;;5055477;28;20225;-90
2023/01/20 04:18:15;;;;;;;7.73;4.33;;;0.40;77.40;;;;;;5043086;28;20203;-91
2023/01/20 04:20:42;;;;;;;9.73;4.90;;;0.30;77.50;;;;;;5045725;28;20206;-91
2023/01/20 04:23:17;;;;;;;7.60;4.40;;;0.20;78.00;;;;;;5045257;28;20203;-92
2023/01/20 04:25:44;;;;;;;5.83;4.40;;;0.10;79.30;;;;;;5052357;28;20231;-91
2023/01/20 04:28:11;;;;;;;5.80;4.57;;;0.00;80.50;;;;;;5050630;28;20216;-90
2023/01/20 04:30:38;;;;;;;5.70;4.50;;;0.10;80.10;;;;;;5052118;28;20225;-90
2023/01/20 04:33:05;;;;;;;5.30;4.60;;;0.00;81.70;;;;;;5048571;28;20206;-89
2023/01/20 04:35:31;;;;;;;5.43;4.57;;;-0.10;82.90;;;;;;5051823;28;20224;-90
2023/01/20 04:37:58;;;;;;;5.70;4.73;;;-0.10;83.20;;;;;;5040425;28;20217;-89
2023/01/20 04:40:26;;;;;;;7.27;4.57;;;-0.10;85.80;;;;;;5048332;28;20269;-92
2023/01/20 04:45:22;;;;;;;6.57;4.83;;;-0.10;85.80;;;;;;5053842;28;20210;-88
2023/01/20 04:47:49;;;;;;;8.27;5.60;;;-0.20;85.70;;;;;;5050858;28;20209;-90
2023/01/20 04:50:17;;;;;;;6.80;4.90;;;-0.20;88.00;;;;;;5050756;28;20211;-92
2023/01/20 04:52:44;;;;;;;7.77;5.77;;;-0.20;90.10;;;;;;5049146;28;20210;-91
2023/01/20 04:55:12;;;;;;;7.57;5.00;;;-0.20;90.80;;;;;;5049590;28;20222;-92
2023/01/20 04:57:40;;;;;;;7.70;5.70;;;-0.20;90.90;;;;;;5047838;28;20211;-92
2023/01/20 05:00:09;;;;;;;7.57;5.40;;;-0.20;90.90;;;;;;5049859;28;20206;-90
2023/01/20 05:02:36;;;;;;;9.93;6.40;;;-0.20;91.20;;;;;;5052890;28;20218;-90
2023/01/20 05:05:05;;;;;;;7.10;5.37;;;-0.10;91.30;;;;;;5051577;28;20421;-92
2023/01/20 05:07:33;;;;;;;8.73;6.00;;;-0.20;91.30;;;;;;5049063;28;20206;-89
2023/01/20 05:10:00;;;;;;;8.70;5.80;;;-0.20;92.00;;;;;;5052421;28;20210;-92
2023/01/20 05:12:28;;;;;;;8.77;6.23;;;-0.20;92.10;;;;;;5050962;28;20210;-89
2023/01/20 05:14:57;;;;;;;9.30;6.53;;;-0.20;92.20;;;;;;5048443;28;20202;-88
2023/01/20 05:17:24;;;;;;;8.67;6.40;;;-0.20;92.70;;;;;;5049951;28;20202;-90
2023/01/20 05:19:51;;;;;;;8.70;6.30;;;-0.20;92.70;;;;;;5054306;28;20191;-89
2023/01/20 05:22:19;;;;;;;8.63;6.60;;;-0.10;92.90;;;;;;5052000;28;20241;-88
2023/01/20 05:24:48;;;;;;;9.77;6.80;;;-0.10;93.40;;;;;;5059562;28;20216;-91
2023/01/20 05:29:59;;;;;;;10.40;7.03;;;0.00;93.70;;;;;;5121969;22;20291;-88
2023/01/20 05:32:26;;;;;;;8.70;7.13;;;0.00;94.00;;;;;;5054899;28;20386;-90
2023/01/20 05:34:53;;;;;;;10.10;8.00;;;0.10;94.00;;;;;;5050234;28;20297;-89
2023/01/20 05:37:19;;;;;;;13.00;7.80;;;0.00;94.00;;;;;;5047619;28;20203;-89
2023/01/20 05:39:46;;;;;;;11.43;8.40;;;0.00;94.00;;;;;;5045633;28;20226;-88
2023/01/20 05:42:13;;;;;;;11.53;8.57;;;-0.10;94.00;;;;;;5052359;28;20212;-90
2023/01/20 05:44:40;;;;;;;10.90;8.47;;;-0.20;94.20;;;;;;5047070;28;20214;-88
2023/01/20 05:47:08;;;;;;;12.97;8.60;;;-0.30;94.50;;;;;;5045976;28;20289;-92
2023/01/20 05:49:35;;;;;;;13.17;8.90;;;-0.30;94.90;;;;;;5042023;28;20738;-89
2023/01/20 05:52:01;;;;;;;12.53;8.93;;;-0.40;95.40;;;;;;5040232;28;20237;-91
2023/01/20 05:54:28;;;;;;;14.10;9.80;;;-0.40;96.00;;;;;;5033612;28;20212;-90
2023/01/20 05:56:55;;;;;;;13.23;9.47;;;-0.30;95.90;;;;;;5024002;28;20222;-88
2023/01/20 05:59:25;;;;;;;12.23;9.13;;;-0.30;96.10;;;;;;5039273;28;20195;-90
2023/01/20 06:39:11;;;;;;;9.70;7.27;;;0.00;93.60;;;;;;4772135;22;20209;-92
2023/01/20 06:44:32;;;;;;;11.97;8.17;;;-0.20;93.30;;;;;;5962089;23;20215;31
2023/01/20 06:46:59;;;;;;;10.67;7.93;;;-0.40;93.90;;;;;;5010147;28;20221;-90
2023/01/20 06:52:01;;;;;;;17.33;10.40;;;-0.40;93.90;;;;;;5086746;22;20269;-89
2023/01/20 06:54:28;;;;;;;13.93;9.13;;;-0.30;93.40;;;;;;5688233;23;20242;-90
2023/01/20 06:56:55;;;;;;;14.60;9.43;;;-0.30;93.00;;;;;;5059141;22;20231;-92
2023/01/20 06:59:22;;;;;;;12.83;9.47;;;-0.20;93.00;;;;;;5195141;22;20241;-92
2023/01/20 07:01:50;;;;;;;11.13;6.40;;;0.00;92.80;;;;;;5030718;28;20206;-91
2023/01/20 07:04:17;;;;;;;9.90;6.60;;;-0.10;92.10;;;;;;5384589;22;20235;-92
2023/01/20 07:09:19;;;;;;;9.63;6.77;;;-0.20;92.30;;;;;;5833825;22;20230;-90
2023/01/20 07:11:47;;;;;;;11.40;7.27;;;-0.20;92.50;;;;;;5393785;23;20215;-90
2023/01/20 07:14:14;;;;;;;9.53;6.67;;;-0.10;92.80;;;;;;5832448;22;20219;-89
2023/01/20 07:32:38;;;;;;;10.37;6.90;;;0.00;91.90;;;;;;5318516;22;20541;-93
2023/01/20 07:35:05;;;;;;;10.33;7.07;;;-0.30;92.90;;;;;;5132843;22;20255;-93
2023/01/20 07:42:45;;;;;;;9.17;7.13;;;-0.30;93.20;;;;;;5367478;23;20233;-91
2023/01/20 07:45:12;;;;;;;11.27;7.43;;;-0.30;93.50;;;;;;5030595;23;20254;-85
2023/01/20 07:47:40;;;;;;;11.10;7.10;;;-0.10;92.90;;;;;;4996594;28;20228;-87
2023/01/20 07:50:08;;;;;;;9.37;7.30;;;-0.10;92.40;;;;;;5027888;28;20243;-87
2023/01/20 07:52:35;;;;;;;12.33;8.17;;;-0.10;92.90;;;;;;5015281;28;20204;-89
2023/01/20 07:55:02;;;;;;;11.50;7.77;;;-0.10;93.10;;;;;;5013530;28;20198;-87
2023/01/20 07:57:29;;;;;;;11.57;7.93;;;0.00;92.70;;;;;;4998720;28;20200;-88
2023/01/20 07:59:56;;;;;;;11.63;7.87;;;0.00;92.50;;;;;;5012271;28;20317;-89
2023/01/20 08:02:23;;;;;;;10.53;7.97;;;0.00;92.10;;;;;;5004798;28;20199;-89
2023/01/20 08:04:52;;;;;;;11.07;7.83;;;-0.10;92.50;;;;;;4997560;28;20203;-89
2023/01/20 08:07:18;;;;;;;11.83;8.03;;;-0.10;92.50;;;;;;5000361;28;20203;-88
2023/01/20 08:09:50;;;;;;;11.30;7.40;;;-0.10;92.70;;;;;;5000138;28;20212;-87
2023/01/20 08:14:52;;;;;;;10.60;7.23;;;-0.10;92.20;;;;;;5744858;23;20293;-93
2023/01/20 08:17:19;;;;;;;10.90;7.10;;;0.00;92.20;;;;;;5105801;23;20872;-91
2023/01/20 08:19:45;;;;;;;9.53;7.40;;;0.10;91.80;;;;;;5010984;28;20901;-82
2023/01/20 08:22:13;;;;;;;11.60;7.37;;;0.10;91.70;;;;;;5004616;28;20208;-83
2023/01/20 08:24:40;;;;;;;10.00;6.83;;;0.00;91.90;;;;;;5004153;28;20204;-82
2023/01/20 08:27:07;;;;;;;9.97;7.60;;;0.20;91.60;;;;;;4998125;28;20199;-81
2023/01/20 08:29:35;;;;;;;11.90;7.57;;;0.20;91.40;;;;;;5002806;28;20208;-81
2023/01/20 08:32:01;;;;;;;9.43;6.90;;;0.10;91.40;;;;;;4990569;28;20204;-82
2023/01/20 08:34:29;;;;;;;9.47;7.03;;;0.10;91.90;;;;;;4986605;28;20204;-82
2023/01/20 08:36:56;;;;;;;11.00;7.70;;;0.20;92.20;;;;;;4986873;28;20204;-88
2023/01/20 08:39:25;;;;;;;10.93;7.13;;;0.30;91.90;;;;;;4993709;28;20200;-86
2023/01/20 08:41:52;;;;;;;10.83;7.87;;;0.40;91.40;;;;;;4994649;28;20223;-88
2023/01/20 08:44:20;;;;;;;11.77;7.93;;;0.40;91.40;;;;;;4992401;28;20196;-86
2023/01/20 08:46:51;;;;;;;11.27;7.67;;;0.40;91.80;;;;;;4996975;28;20255;-85
2023/01/20 08:49:20;;;;;;;12.17;8.40;;;0.40;91.80;;;;;;4984595;28;20250;-85
2023/01/20 08:51:47;;;;;;;11.13;7.73;;;0.40;92.20;;;;;;4991721;28;20216;-85
2023/01/20 08:54:15;;;;;;;9.97;7.67;;;0.50;92.40;;;;;;4985112;28;20843;-86
2023/01/20 08:56:43;;;;;;;10.53;8.20;;;0.50;92.00;;;;;;4998001;28;20204;-85
2023/01/20 08:59:11;;;;;;;10.50;7.67;;;0.40;91.40;;;;;;4985658;28;20211;-86
2023/01/20 09:01:37;;;;;;;9.43;7.27;;;0.40;91.60;;;;;;4989022;28;20703;-85
2023/01/20 09:04:05;;;;;;;10.27;7.87;;;0.60;91.40;;;;;;4992594;28;20196;-85
2023/01/20 09:06:37;;;;;;;11.77;6.97;;;0.60;91.40;;;;;;4995091;28;20293;-84
2023/01/20 09:09:04;;;;;;;10.67;7.37;;;0.70;90.30;;;;;;4985715;28;20211;-85
2023/01/20 09:11:31;;;;;;;10.67;7.00;;;0.80;90.70;;;;;;4984946;28;20206;-84
2023/01/20 09:13:59;;;;;;;11.53;7.63;;;0.70;91.10;;;;;;4991003;28;20200;-82
2023/01/20 09:16:26;;;;;;;10.33;7.07;;;0.80;90.80;;;;;;4992632;28;20612;-83
2023/01/20 09:18:53;;;;;;;9.63;6.97;;;0.70;90.20;;;;;;4992139;28;20208;-82
2023/01/20 09:21:20;;;;;;;7.83;6.77;;;0.70;90.60;;;;;;4992285;28;20242;-83
2023/01/20 09:23:47;;;;;;;12.93;7.17;;;0.80;90.40;;;;;;4983601;28;20224;-83
2023/01/20 09:26:14;;;;;;;9.43;6.83;;;0.80;90.20;;;;;;4984163;28;20196;-82
2023/01/20 09:28:44;;;;;;;11.50;6.50;;;0.90;89.30;;;;;;4990606;28;20207;-81
2023/01/20 09:31:13;;;;;;;9.70;6.90;;;0.80;90.40;;;;;;4990931;28;20246;-82
2023/01/20 09:33:40;;;;;;;9.10;7.40;;;1.00;90.00;;;;;;4989814;28;20195;-81
2023/01/20 09:36:09;;;;;;;9.27;6.77;;;1.10;90.20;;;;;;4979308;28;20199;-82
2023/01/20 09:44:43;;;;;;;8.13;6.20;;;1.20;89.10;;;;;;4978536;28;20667;-81
2023/01/20 09:47:24;;;;;;;8.37;5.93;;;1.20;86.60;;;;;;4986846;28;20200;-84
2023/01/20 09:53:14;;;;;;;9.30;5.97;;;1.50;83.50;;;;;;4992200;28;20247;-84
2023/01/20 09:55:46;;;;;;;8.67;6.00;;;1.50;83.60;;;;;;4978674;28;20200;-83
2023/01/20 09:58:24;;;;;;;7.13;5.70;;;1.50;84.30;;;;;;4982338;28;20212;-83
2023/01/20 10:00:56;;;;;;;5.27;4.33;;;1.60;82.90;;;;;;4988029;28;20227;-84
2023/01/20 10:03:35;;;;;;;7.10;5.20;;;1.60;79.80;;;;;;4991220;28;20205;-84
2023/01/20 10:06:07;;;;;;;8.37;5.17;;;1.40;81.20;;;;;;4986094;28;20675;-83
2023/01/20 10:08:39;;;;;;;6.93;5.20;;;1.50;80.80;;;;;;4988185;28;20209;-85
2023/01/20 10:11:11;;;;;;;7.13;5.10;;;1.50;81.40;;;;;;4988353;28;20211;-84
2023/01/20 10:13:46;;;;;;;7.60;5.17;;;1.60;81.80;;;;;;4985282;28;20196;-87
2023/01/20 10:16:20;;;;;;;6.43;5.10;;;1.70;80.90;;;;;;4990453;28;20255;-87
2023/01/20 10:18:53;;;;;;;6.90;4.93;;;1.70;81.20;;;;;;4987831;28;20221;-84
2023/01/20 10:21:28;;;;;;;5.73;5.07;;;1.70;79.80;;;;;;4988623;28;20226;-91
2023/01/20 10:23:57;;;;;;;7.77;5.03;;;1.70;81.00;;;;;;4991921;28;20215;-90
2023/01/20 10:26:30;;;;;;;6.70;5.33;;;1.70;79.50;;;;;;4996467;28;20215;-86
2023/01/20 10:29:00;;;;;;;6.50;4.93;;;1.50;80.90;;;;;;4991475;28;20200;-88
2023/01/20 10:31:29;;;;;;;5.87;4.33;;;1.50;82.50;;;;;;4988332;28;20211;-88
2023/01/20 10:34:01;;;;;;;6.60;5.27;;;1.60;81.00;;;;;;4991383;28;20208;-90
2023/01/20 10:36:30;;;;;;;5.13;4.13;;;1.60;82.40;;;;;;4989522;28;20226;-89
2023/01/20 10:39:01;;;;;;;5.87;4.37;;;1.60;81.40;;;;;;4975887;28;20202;-90
2023/01/20 10:41:36;;;;;;;6.00;4.57;;;1.60;84.20;;;;;;4997486;28;20235;-92
2023/01/20 10:44:09;;;;;;;6.63;4.40;;;1.70;82.90;;;;;;5003028;28;20207;-90
2023/01/20 10:46:56;;;;;;;5.33;4.53;;;1.70;80.40;;;;;;4992940;28;20207;-90
2023/01/20 10:49:39;;;;;;;6.13;4.87;;;1.70;81.00;;;;;;4984235;28;20689;-90
2023/01/20 10:52:18;;;;;;;5.43;4.20;;;2.00;78.90;;;;;;4989992;28;20293;-89
2023/01/20 10:54:52;;;;;;;5.23;4.00;;;2.00;79.70;;;;;;4996510;28;20183;-90
2023/01/20 10:57:20;;;;;;;6.43;3.73;;;2.00;78.20;;;;;;4972357;28;20196;-88
2023/01/20 10:59:50;;;;;;;4.93;3.80;;;1.90;77.20;;;;;;4983802;28;20215;-89
2023/01/20 11:02:24;;;;;;;6.83;3.83;;;2.00;77.50;;;;;;4988725;28;20228;-88
2023/01/20 11:04:57;;;;;;;5.13;3.70;;;2.00;78.60;;;;;;4986213;28;20222;-87
2023/01/20 11:07:25;;;;;;;6.00;4.10;;;2.00;78.30;;;;;;4981393;28;20212;-87
2023/01/20 11:09:52;;;;;;;6.10;4.33;;;2.00;78.70;;;;;;4987757;28;20208;-87
2023/01/20 11:12:22;;;;;;;4.57;3.90;;;2.20;77.10;;;;;;4983752;28;20215;-90
2023/01/20 11:14:49;;;;;;;5.50;4.30;;;2.20;77.00;;;;;;4986849;28;20206;-87
2023/01/20 11:17:19;;;;;;;5.10;4.30;;;2.30;77.50;;;;;;5012328;28;20238;-89
2023/01/20 11:19:53;;;;;;;5.27;4.17;;;2.20;79.90;;;;;;5014355;28;20353;-91
2023/01/20 11:22:27;;;;;;;5.37;4.50;;;2.20;80.60;;;;;;5012936;28;20226;-88
2023/01/20 11:24:57;;;;;;;5.77;4.77;;;2.10;82.80;;;;;;5007329;28;20635;-88
2023/01/20 11:27:28;;;;;;;5.63;4.70;;;2.00;85.30;;;;;;5004658;28;20195;-88
2023/01/20 11:29:59;;;;;;;5.13;4.63;;;2.00;85.60;;;;;;4999209;28;20203;-88
2023/01/20 11:32:33;;;;;;;5.77;4.60;;;1.90;86.70;;;;;;4986318;28;20619;-89
2023/01/20 11:35:17;;;;;;;5.20;3.90;;;2.20;87.10;;;;;;5001180;28;20199;-86
2023/01/20 11:37:44;;;;;;;4.40;3.07;;;2.20;81.80;;;;;;5002607;28;20659;-86
2023/01/20 11:40:20;;;;;;;3.00;2.70;;;2.30;80.20;;;;;;5009231;28;20307;-85
2023/01/20 11:42:49;;;;;;;3.73;2.47;;;2.40;75.60;;;;;;5006520;28;20226;-85
2023/01/20 11:45:29;;;;;;;4.33;2.60;;;2.30;71.30;;;;;;5006357;28;20203;-85
2023/01/20 11:48:15;;;;;;;3.43;2.60;;;2.40;76.00;;;;;;5004474;28;20613;-87
2023/01/20 11:50:48;;;;;;;3.30;3.00;;;2.20;73.60;;;;;;5010785;28;20201;-85
2023/01/20 11:53:20;;;;;;;5.10;3.13;;;2.10;76.30;;;;;;5005748;28;20290;-84
2023/01/20 11:55:51;;;;;;;5.00;3.60;;;2.00;80.90;;;;;;4999837;28;20199;-86
2023/01/20 11:58:20;;;;;;;4.30;3.03;;;2.20;80.20;;;;;;5002715;28;20214;-87
2023/01/20 12:00:49;;;;;;;4.27;3.57;;;2.30;78.80;;;;;;5001836;28;20203;-85
2023/01/20 12:03:46;;;;;;;4.37;3.57;;;2.40;77.50;;;;;;5008500;28;20230;-85
2023/01/20 12:06:18;;;;;;;4.97;3.80;;;2.40;77.10;;;;;;5009242;28;20672;-85
2023/01/20 12:08:49;;;;;;;4.53;3.67;;;2.50;77.40;;;;;;5015611;28;20200;-86
2023/01/20 12:11:22;;;;;;;5.70;4.10;;;2.50;76.60;;;;;;5016148;28;20218;-84
2023/01/20 12:16:48;;;;;;;6.10;4.03;;;2.50;76.50;;;;;;4990456;28;20374;-85
2023/01/20 12:19:20;;;;;;;4.57;4.03;;;2.60;75.70;;;;;;4981283;28;20259;-86
2023/01/20 12:21:52;;;;;;;5.13;4.17;;;2.60;76.80;;;;;;4981913;28;20232;-87
2023/01/20 12:24:25;;;;;;;7.43;6.63;;;2.70;79.00;;;;;;4957806;28;20599;-85
2023/01/20 12:26:52;;;;;;;6.17;4.40;;;2.70;76.50;;;;;;4983476;28;20204;-85
2023/01/20 12:29:24;;;;;;;6.37;4.73;;;2.60;77.40;;;;;;4982866;28;20240;-85
2023/01/20 12:31:53;;;;;;;4.83;4.33;;;2.60;79.50;;;;;;4982619;28;20212;-83
2023/01/20 12:34:27;;;;;;;7.13;4.83;;;2.70;79.80;;;;;;4991858;28;20219;-85
2023/01/20 12:37:06;;;;;;;6.70;5.10;;;2.60;81.00;;;;;;4982329;28;20202;-85
2023/01/20 12:40:03;;;;;;;6.30;5.27;;;2.60;78.10;;;;;;4989979;28;20977;-85
2023/01/20 12:42:57;;;;;;;7.27;5.53;;;2.40;81.90;;;;;;4968711;28;20216;-85
2023/01/20 12:45:38;;;;;;;7.43;5.20;;;2.30;83.30;;;;;;4989736;28;20200;-84
2023/01/20 12:48:23;;;;;;;7.30;5.30;;;2.10;83.30;;;;;;4984196;28;20546;-91
2023/01/20 12:51:04;;;;;;;7.40;5.70;;;2.20;83.20;;;;;;4983422;28;20197;-87
2023/01/20 12:53:57;;;;;;;7.33;6.33;;;2.20;87.20;;;;;;4987706;28;20207;-87
2023/01/20 12:56:33;;;;;;;8.77;5.30;;;2.20;87.20;;;;;;4988025;28;20207;-85
2023/01/20 12:59:06;;;;;;;8.23;6.37;;;2.10;85.30;;;;;;4984182;28;20552;-87
2023/01/20 13:01:45;;;;;;;8.80;6.97;;;1.90;87.00;;;;;;4985908;28;20555;-86
2023/01/20 13:07:51;;;;;;;10.77;8.13;;;1.70;86.90;;;;;;4975209;28;20200;-87
2023/01/20 13:10:46;;;;;;;11.40;8.63;;;1.50;89.40;;;;;;4988636;28;20204;-85
2023/01/20 13:13:28;;;;;;;11.20;8.90;;;1.50;90.00;;;;;;4987166;28;20740;-87
2023/01/20 13:16:01;;;;;;;12.30;9.03;;;1.50;88.30;;;;;;4980747;28;20254;-86
2023/01/20 13:18:36;;;;;;;12.53;9.57;;;1.50;90.00;;;;;;4976793;28;20215;-87
2023/01/20 13:21:03;;;;;;;11.30;8.77;;;1.30;90.00;;;;;;4980097;28;20310;-85
2023/01/20 13:23:35;;;;;;;11.03;8.93;;;1.10;90.60;;;;;;4981916;28;20739;-86
2023/01/20 13:26:05;;;;;;;11.17;9.20;;;1.10;91.40;;;;;;4981806;28;20192;-85
2023/01/20 13:28:32;;;;;;;12.37;9.87;;;1.10;91.30;;;;;;4981420;28;20680;-84
2023/01/20 13:31:01;;;;;;;12.47;9.70;;;1.20;91.80;;;;;;4978837;28;20210;-86
2023/01/20 13:33:34;;;;;;;12.93;10.17;;;1.30;91.20;;;;;;4979694;28;20204;-88
2023/01/20 13:36:13;;;;;;;12.23;9.80;;;1.10;91.70;;;;;;4981153;28;20227;-85
2023/01/20 13:38:41;;;;;;;14.43;10.40;;;1.10;91.90;;;;;;4977828;28;20200;-88
2023/01/20 13:41:10;;;;;;;14.40;10.60;;;1.20;91.60;;;;;;4983209;28;20215;-85
2023/01/20 13:43:49;;;;;;;12.43;9.70;;;1.10;91.80;;;;;;4979940;28;20319;-85
2023/01/20 13:46:46;;;;;;;12.87;10.10;;;1.20;91.60;;;;;;4987137;28;20290;-86
2023/01/20 13:49:28;;;;;;;11.57;9.63;;;1.00;91.20;;;;;;4979139;28;20246;-86
2023/01/20 13:51:55;;;;;;;12.97;10.20;;;1.00;91.50;;;;;;4978165;28;20626;-84
2023/01/20 13:54:42;;;;;;;13.77;10.00;;;0.90;91.80;;;;;;4981799;28;20213;-85
2023/01/20 13:57:37;;;;;;;14.50;10.23;;;0.80;92.00;;;;;;4969088;28;20210;-86
2023/01/20 14:00:18;;;;;;;11.80;10.03;;;0.80;92.20;;;;;;4983559;28;20688;-86
2023/01/20 14:02:47;;;;;;;14.20;10.47;;;0.80;92.40;;;;;;4982484;28;20256;-89
2023/01/20 14:05:25;;;;;;;16.23;10.37;;;0.70;93.20;;;;;;4985314;28;20323;-86
2023/01/20 14:07:59;;;;;;;12.50;9.97;;;0.70;93.10;;;;;;4977953;28;20209;-84
2023/01/20 14:10:27;;;;;;;14.33;11.10;;;0.70;93.40;;;;;;4986041;28;20207;-87
2023/01/20 14:12:53;;;;;;;13.03;10.00;;;0.70;93.80;;;;;;4979221;28;20203;-85
2023/01/20 14:15:40;;;;;;;15.27;10.53;;;0.80;92.80;;;;;;4981600;28;20207;-89
2023/01/20 14:18:15;;;;;;;15.40;11.00;;;0.90;92.60;;;;;;4980003;28;20200;-88
2023/01/20 14:20:41;;;;;;;14.33;10.33;;;1.00;92.20;;;;;;4982394;28;20205;-86
2023/01/20 14:23:28;;;;;;;13.60;10.73;;;1.10;91.70;;;;;;4984902;28;20709;-86
2023/01/20 14:26:05;;;;;;;14.23;10.93;;;1.00;91.50;;;;;;4986293;28;20222;-86
2023/01/20 14:28:34;;;;;;;13.63;11.03;;;1.00;91.70;;;;;;4980402;28;20211;-85
2023/01/20 14:31:39;;;;;;;13.97;11.00;;;0.90;92.00;;;;;;4984331;28;20204;-84
2023/01/20 14:34:24;;;;;;;15.10;11.27;;;0.80;92.20;;;;;;4984962;28;20222;-85
2023/01/20 14:36:52;;;;;;;16.20;11.40;;;0.90;92.50;;;;;;4981692;28;20207;-85
2023/01/20 14:39:20;;;;;;;16.97;11.87;;;0.80;92.70;;;;;;4986416;28;20206;-86
2023/01/20 14:41:49;;;;;;;14.67;11.17;;;0.80;92.90;;;;;;4987876;28;20204;-86
2023/01/20 14:44:19;;;;;;;15.43;11.27;;;0.90;93.10;;;;;;4982766;28;20207;-87
2023/01/20 14:46:49;;;;;;;16.80;12.10;;;0.90;93.00;;;;;;4979986;28;20210;-85
2023/01/20 14:49:18;;;;;;;16.57;12.40;;;0.90;93.30;;;;;;4978114;28;20223;-86
2023/01/20 14:51:46;;;;;;;17.13;12.63;;;0.80;93.50;;;;;;4979927;28;20561;-86
2023/01/20 14:54:36;;;;;;;15.87;12.33;;;0.80;94.00;;;;;;4982415;28;20196;-85
2023/01/20 14:57:25;;;;;;;15.53;11.87;;;0.80;94.20;;;;;;4979759;28;20211;-84
2023/01/20 15:00:19;;;;;;;17.03;11.73;;;0.80;94.20;;;;;;4978674;28;20226;-87
2023/01/20 15:02:50;;;;;;;15.63;11.80;;;0.80;94.20;;;;;;4958979;28;20638;-87
2023/01/20 15:05:26;;;;;;;16.37;12.27;;;0.90;94.20;;;;;;4981157;28;20694;-84
2023/01/20 15:08:17;;;;;;;16.93;12.57;;;0.70;94.40;;;;;;4966669;28;20223;-85
2023/01/20 15:10:45;;;;;;;17.47;12.30;;;0.70;95.30;;;;;;4981978;28;20205;-86
2023/01/20 15:13:25;;;;;;;18.87;13.27;;;0.70;95.80;;;;;;4978999;28;20672;-85
2023/01/20 15:15:52;;;;;;;17.70;13.03;;;0.60;95.90;;;;;;4976744;28;20235;-85
2023/01/20 15:18:33;;;;;;;20.30;13.33;;;0.60;95.90;;;;;;4975896;28;20196;-85
2023/01/20 15:21:12;;;;;;;17.70;12.67;;;0.70;95.40;;;;;;4977376;28;20563;-85
2023/01/20 15:23:42;;;;;;;15.90;12.00;;;0.70;95.10;;;;;;4979056;28;20227;-83
2023/01/20 15:26:17;;;;;;;17.67;12.87;;;0.70;95.20;;;;;;4979128;28;20200;-87
2023/01/20 15:28:44;;;;;;;19.60;13.47;;;0.60;95.30;;;;;;4981510;28;20195;-82
2023/01/20 15:31:14;;;;;;;18.90;13.00;;;0.60;95.20;;;;;;4981579;28;20211;-83
2023/01/20 15:33:43;;;;;;;17.13;12.80;;;0.60;95.70;;;;;;4981677;28;20251;-85
2023/01/20 15:36:21;;;;;;;19.73;13.70;;;0.60;95.80;;;;;;4986033;28;20210;-85
2023/01/20 15:38:49;;;;;;;16.87;12.60;;;0.70;95.50;;;;;;4979013;28;20668;-85
2023/01/20 15:41:16;;;;;;;18.67;13.60;;;0.70;95.40;;;;;;4982686;28;20211;-84
2023/01/20 15:43:44;;;;;;;17.20;13.27;;;0.70;95.30;;;;;;4982097;28;20223;-86
2023/01/20 15:46:11;;;;;;;18.20;13.50;;;0.70;95.30;;;;;;4985051;28;20230;-84
2023/01/20 15:48:38;;;;;;;19.80;14.00;;;0.60;95.40;;;;;;4989289;28;20201;-82
2023/01/20 15:51:12;;;;;;;21.13;14.13;;;0.60;95.60;;;;;;4981973;28;20200;-85
2023/01/20 15:53:38;;;;;;;21.20;14.33;;;0.60;95.50;;;;;;4984767;28;20204;-82
2023/01/20 15:56:06;;;;;;;20.50;14.03;;;0.60;95.30;;;;;;4981707;28;20200;-84
2023/01/20 15:58:34;;;;;;;19.73;14.10;;;0.70;95.60;;;;;;4992421;28;20566;-84
2023/01/20 16:01:00;;;;;;;19.20;14.00;;;0.70;95.60;;;;;;4989505;28;20587;-83
2023/01/20 16:03:32;;;;;;;19.67;13.80;;;0.70;95.60;;;;;;4986616;28;20225;-86
2023/01/20 16:05:58;;;;;;;20.87;13.70;;;0.60;95.50;;;;;;4984010;28;20239;-85
2023/01/20 16:08:36;;;;;;;19.40;14.20;;;0.70;95.30;;;;;;4987296;28;20204;-85
2023/01/20 16:11:03;;;;;;;19.43;14.47;;;0.60;95.50;;;;;;4987761;28;20184;-85
2023/01/20 16:13:30;;;;;;;20.97;14.53;;;0.60;95.70;;;;;;4986267;28;20286;-85
2023/01/20 16:15:57;;;;;;;22.50;14.97;;;0.60;95.90;;;;;;4992812;28;20255;-85
2023/01/20 16:18:24;;;;;;;20.10;14.13;;;0.50;96.00;;;;;;4996629;28;20195;-85
2023/01/20 16:20:51;;;;;;;21.33;14.60;;;0.60;96.50;;;;;;4987502;28;20199;-85
2023/01/20 16:23:19;;;;;;;20.47;14.57;;;0.60;96.30;;;;;;4986498;28;22020;-84
2023/01/20 16:25:48;;;;;;;21.87;14.17;;;0.60;96.20;;;;;;4984563;28;20555;-84
2023/01/20 16:28:18;;;;;;;19.03;14.00;;;0.60;96.50;;;;;;4988041;28;20288;-83
2023/01/20 16:30:45;;;;;;;21.03;13.87;;;0.50;96.50;;;;;;4984324;28;21684;-83
2023/01/20 16:33:17;;;;;;;18.90;13.90;;;0.60;96.60;;;;;;4985176;28;20211;-83
2023/01/20 16:35:44;;;;;;;21.27;14.63;;;0.60;96.50;;;;;;4989184;28;20215;-83
2023/01/20 16:38:14;;;;;;;22.23;14.60;;;0.60;96.50;;;;;;4989243;28;20222;-83
2023/01/20 16:40:49;;;;;;;22.60;14.60;;;0.60;96.60;;;;;;4984969;28;20196;-82
2023/01/20 16:43:16;;;;;;;22.07;13.87;;;0.70;96.80;;;;;;4986283;28;20219;-83
2023/01/20 16:45:44;;;;;;;20.90;13.83;;;0.70;96.80;;;;;;4984989;28;20210;-84
2023/01/20 16:48:11;;;;;;;20.23;13.57;;;0.70;96.60;;;;;;4983306;28;20206;-85